sensor_id;sensor_type;location;lat;lon;timestamp;P1;durP1;ratioP1;P2;durP2;ratioP2
72621;SDS011;60665;53.506;9.582;2023-11-21T00:00:51;14.27;;;5.80;;
72621;SDS011;60665;53.506;9.582;2023-11-21T00:03:16;25.35;;;6.72;;
72621;SDS011;60665;53.506;9.582;2023-11-21T00:05:41;15.77;;;6.18;;
72621;SDS011;60665;53.506;9.582;2023-11-21T00:08:07;20.45;;;6.57;;
72621;SDS011;60665;53.506;9.582;2023-11-21T00:10:33;17.40;;;6.78;;
72621;SDS011;60665;53.506;9.582;2023-11-21T00:12:59;17.50;;;6.75;;
72621;SDS011;60665;53.506;9.582;2023-11-21T00:15:24;17.77;;;6.47;;
72621;SDS011;60665;53.506;9.582;2023-11-21T00:17:51;18.90;;;6.82;;
72621;SDS011;60665;53.506;9.582;2023-11-21T00:20:16;20.15;;;7.15;;
72621;SDS011;60665;53.506;9.582;2023-11-21T00:22:42;23.13;;;8.40;;
72621;SDS011;60665;53.506;9.582;2023-11-21T00:25:07;21.45;;;7.72;;
72621;SDS011;60665;53.506;9.582;2023-11-21T00:27:34;20.77;;;7.30;;
72621;SDS011;60665;53.506;9.582;2023-11-21T00:30:03;18.77;;;7.63;;
72621;SDS011;60665;53.506;9.582;2023-11-21T00:32:33;20.70;;;8.43;;
72621;SDS011;60665;53.506;9.582;2023-11-21T00:35:00;27.50;;;8.50;;
72621;SDS011;60665;53.506;9.582;2023-11-21T00:37:26;19.25;;;8.40;;
72621;SDS011;60665;53.506;9.582;2023-11-21T00:39:51;22.20;;;8.85;;
72621;SDS011;60665;53.506;9.582;2023-11-21T00:42:16;24.65;;;9.18;;
72621;SDS011;60665;53.506;9.582;2023-11-21T00:44:42;26.27;;;9.15;;
72621;SDS011;60665;53.506;9.582;2023-11-21T00:47:07;24.02;;;9.30;;
72621;SDS011;60665;53.506;9.582;2023-11-21T00:49:33;23.40;;;9.80;;
72621;SDS011;60665;53.506;9.582;2023-11-21T00:51:58;24.33;;;9.48;;
72621;SDS011;60665;53.506;9.582;2023-11-21T00:54:24;26.58;;;9.95;;
72621;SDS011;60665;53.506;9.582;2023-11-21T00:56:49;25.83;;;9.35;;
72621;SDS011;60665;53.506;9.582;2023-11-21T00:59:14;25.23;;;8.77;;
72621;SDS011;60665;53.506;9.582;2023-11-21T01:01:40;24.65;;;9.70;;
72621;SDS011;60665;53.506;9.582;2023-11-21T01:04:05;21.42;;;8.85;;
72621;SDS011;60665;53.506;9.582;2023-11-21T01:06:32;25.67;;;8.65;;
72621;SDS011;60665;53.506;9.582;2023-11-21T01:08:57;27.83;;;9.43;;
72621;SDS011;60665;53.506;9.582;2023-11-21T01:11:23;21.05;;;8.55;;
72621;SDS011;60665;53.506;9.582;2023-11-21T01:13:48;20.55;;;8.45;;
72621;SDS011;60665;53.506;9.582;2023-11-21T01:16:13;22.98;;;9.05;;
72621;SDS011;60665;53.506;9.582;2023-11-21T01:18:39;21.02;;;8.57;;
72621;SDS011;60665;53.506;9.582;2023-11-21T01:21:04;21.25;;;8.40;;
72621;SDS011;60665;53.506;9.582;2023-11-21T01:23:30;20.23;;;8.38;;
72621;SDS011;60665;53.506;9.582;2023-11-21T01:25:56;16.83;;;7.95;;
72621;SDS011;60665;53.506;9.582;2023-11-21T01:28:22;20.20;;;8.95;;
72621;SDS011;60665;53.506;9.582;2023-11-21T01:30:47;20.20;;;8.18;;
72621;SDS011;60665;53.506;9.582;2023-11-21T01:33:13;20.77;;;8.23;;
72621;SDS011;60665;53.506;9.582;2023-11-21T01:35:40;20.17;;;7.93;;
72621;SDS011;60665;53.506;9.582;2023-11-21T01:38:06;14.90;;;6.72;;
72621;SDS011;60665;53.506;9.582;2023-11-21T01:40:33;15.65;;;6.80;;
72621;SDS011;60665;53.506;9.582;2023-11-21T01:42:58;17.30;;;6.93;;
72621;SDS011;60665;53.506;9.582;2023-11-21T01:45:24;19.90;;;7.70;;
72621;SDS011;60665;53.506;9.582;2023-11-21T01:47:50;15.40;;;6.65;;
72621;SDS011;60665;53.506;9.582;2023-11-21T01:50:16;18.98;;;7.70;;
72621;SDS011;60665;53.506;9.582;2023-11-21T01:52:43;19.80;;;7.90;;
72621;SDS011;60665;53.506;9.582;2023-11-21T01:55:09;18.33;;;7.60;;
72621;SDS011;60665;53.506;9.582;2023-11-21T01:57:35;17.48;;;8.15;;
72621;SDS011;60665;53.506;9.582;2023-11-21T02:00:03;21.48;;;8.48;;
72621;SDS011;60665;53.506;9.582;2023-11-21T02:02:46;20.80;;;8.02;;
72621;SDS011;60665;53.506;9.582;2023-11-21T02:05:13;18.88;;;8.25;;
72621;SDS011;60665;53.506;9.582;2023-11-21T02:07:44;20.45;;;7.72;;
72621;SDS011;60665;53.506;9.582;2023-11-21T02:10:12;19.63;;;7.93;;
72621;SDS011;60665;53.506;9.582;2023-11-21T02:12:40;18.27;;;7.05;;
72621;SDS011;60665;53.506;9.582;2023-11-21T02:15:12;15.70;;;7.18;;
72621;SDS011;60665;53.506;9.582;2023-11-21T02:17:45;17.63;;;6.70;;
72621;SDS011;60665;53.506;9.582;2023-11-21T02:20:16;15.88;;;6.32;;
72621;SDS011;60665;53.506;9.582;2023-11-21T02:22:43;13.15;;;5.45;;
72621;SDS011;60665;53.506;9.582;2023-11-21T02:25:28;12.70;;;5.35;;
72621;SDS011;60665;53.506;9.582;2023-11-21T02:27:59;11.25;;;4.63;;
72621;SDS011;60665;53.506;9.582;2023-11-21T02:30:25;13.18;;;5.32;;
72621;SDS011;60665;53.506;9.582;2023-11-21T02:32:52;10.57;;;4.70;;
72621;SDS011;60665;53.506;9.582;2023-11-21T02:35:18;13.25;;;4.70;;
72621;SDS011;60665;53.506;9.582;2023-11-21T02:37:46;10.07;;;4.20;;
72621;SDS011;60665;53.506;9.582;2023-11-21T02:40:15;10.15;;;4.72;;
72621;SDS011;60665;53.506;9.582;2023-11-21T02:45:09;9.00;;;4.47;;
72621;SDS011;60665;53.506;9.582;2023-11-21T02:47:37;11.98;;;5.15;;
72621;SDS011;60665;53.506;9.582;2023-11-21T02:50:03;11.52;;;4.63;;
72621;SDS011;60665;53.506;9.582;2023-11-21T02:52:29;10.60;;;4.50;;
72621;SDS011;60665;53.506;9.582;2023-11-21T02:54:54;9.35;;;4.00;;
72621;SDS011;60665;53.506;9.582;2023-11-21T02:57:20;12.23;;;3.72;;
72621;SDS011;60665;53.506;9.582;2023-11-21T02:59:45;7.68;;;3.58;;
72621;SDS011;60665;53.506;9.582;2023-11-21T03:02:10;6.97;;;3.53;;
72621;SDS011;60665;53.506;9.582;2023-11-21T03:04:36;11.85;;;4.25;;
72621;SDS011;60665;53.506;9.582;2023-11-21T03:07:01;8.25;;;3.92;;
72621;SDS011;60665;53.506;9.582;2023-11-21T03:09:27;8.50;;;3.65;;
72621;SDS011;60665;53.506;9.582;2023-11-21T03:11:55;7.90;;;3.50;;
72621;SDS011;60665;53.506;9.582;2023-11-21T03:16:47;7.47;;;3.37;;
72621;SDS011;60665;53.506;9.582;2023-11-21T03:19:13;7.28;;;3.53;;
72621;SDS011;60665;53.506;9.582;2023-11-21T03:21:40;7.13;;;3.47;;
72621;SDS011;60665;53.506;9.582;2023-11-21T03:24:05;8.77;;;3.13;;
72621;SDS011;60665;53.506;9.582;2023-11-21T03:26:32;7.07;;;3.33;;
72621;SDS011;60665;53.506;9.582;2023-11-21T03:28:57;7.63;;;3.00;;
72621;SDS011;60665;53.506;9.582;2023-11-21T03:31:23;9.45;;;3.53;;
72621;SDS011;60665;53.506;9.582;2023-11-21T03:33:48;6.53;;;2.90;;
72621;SDS011;60665;53.506;9.582;2023-11-21T03:36:13;7.07;;;3.13;;
72621;SDS011;60665;53.506;9.582;2023-11-21T03:38:43;8.68;;;3.38;;
72621;SDS011;60665;53.506;9.582;2023-11-21T03:41:08;7.68;;;2.95;;
72621;SDS011;60665;53.506;9.582;2023-11-21T03:43:36;7.47;;;2.60;;
72621;SDS011;60665;53.506;9.582;2023-11-21T03:46:02;6.50;;;2.78;;
72621;SDS011;60665;53.506;9.582;2023-11-21T03:48:28;6.97;;;3.20;;
72621;SDS011;60665;53.506;9.582;2023-11-21T03:50:53;6.75;;;3.35;;
72621;SDS011;60665;53.506;9.582;2023-11-21T03:53:19;6.63;;;2.70;;
72621;SDS011;60665;53.506;9.582;2023-11-21T03:55:44;7.13;;;2.90;;
72621;SDS011;60665;53.506;9.582;2023-11-21T03:58:09;7.65;;;3.25;;
72621;SDS011;60665;53.506;9.582;2023-11-21T04:00:35;6.70;;;3.00;;
72621;SDS011;60665;53.506;9.582;2023-11-21T04:03:00;8.77;;;3.20;;
72621;SDS011;60665;53.506;9.582;2023-11-21T04:05:25;9.27;;;3.30;;
72621;SDS011;60665;53.506;9.582;2023-11-21T04:07:51;6.32;;;3.10;;
72621;SDS011;60665;53.506;9.582;2023-11-21T04:10:17;8.02;;;3.35;;
72621;SDS011;60665;53.506;9.582;2023-11-21T04:12:43;10.07;;;3.28;;
72621;SDS011;60665;53.506;9.582;2023-11-21T04:15:08;6.93;;;3.28;;
72621;SDS011;60665;53.506;9.582;2023-11-21T04:17:34;7.15;;;3.20;;
72621;SDS011;60665;53.506;9.582;2023-11-21T04:20:01;7.07;;;3.13;;
72621;SDS011;60665;53.506;9.582;2023-11-21T04:22:27;7.50;;;3.10;;
72621;SDS011;60665;53.506;9.582;2023-11-21T04:24:53;7.35;;;3.50;;
72621;SDS011;60665;53.506;9.582;2023-11-21T04:27:19;8.18;;;3.58;;
72621;SDS011;60665;53.506;9.582;2023-11-21T04:29:44;7.85;;;3.67;;
72621;SDS011;60665;53.506;9.582;2023-11-21T04:32:09;7.45;;;3.38;;
72621;SDS011;60665;53.506;9.582;2023-11-21T04:34:35;8.02;;;3.75;;
72621;SDS011;60665;53.506;9.582;2023-11-21T04:37:01;7.22;;;3.40;;
72621;SDS011;60665;53.506;9.582;2023-11-21T04:39:26;9.38;;;3.47;;
72621;SDS011;60665;53.506;9.582;2023-11-21T04:41:52;8.10;;;3.58;;
72621;SDS011;60665;53.506;9.582;2023-11-21T04:44:17;7.40;;;3.83;;
72621;SDS011;60665;53.506;9.582;2023-11-21T04:46:42;11.95;;;4.55;;
72621;SDS011;60665;53.506;9.582;2023-11-21T04:49:08;6.82;;;3.47;;
72621;SDS011;60665;53.506;9.582;2023-11-21T04:51:34;8.75;;;3.60;;
72621;SDS011;60665;53.506;9.582;2023-11-21T04:53:59;9.40;;;3.70;;
72621;SDS011;60665;53.506;9.582;2023-11-21T04:56:24;7.80;;;3.85;;
72621;SDS011;60665;53.506;9.582;2023-11-21T04:58:50;6.78;;;3.40;;
72621;SDS011;60665;53.506;9.582;2023-11-21T05:01:15;12.82;;;5.57;;
72621;SDS011;60665;53.506;9.582;2023-11-21T05:03:41;12.35;;;6.18;;
72621;SDS011;60665;53.506;9.582;2023-11-21T05:06:06;8.90;;;4.28;;
72621;SDS011;60665;53.506;9.582;2023-11-21T05:08:34;11.45;;;4.28;;
72621;SDS011;60665;53.506;9.582;2023-11-21T05:11:02;9.57;;;3.58;;
72621;SDS011;60665;53.506;9.582;2023-11-21T05:13:27;7.97;;;3.40;;
72621;SDS011;60665;53.506;9.582;2023-11-21T05:15:54;11.15;;;4.43;;
72621;SDS011;60665;53.506;9.582;2023-11-21T05:18:20;9.40;;;4.45;;
72621;SDS011;60665;53.506;9.582;2023-11-21T05:20:46;11.07;;;5.88;;
72621;SDS011;60665;53.506;9.582;2023-11-21T05:23:12;9.73;;;4.75;;
72621;SDS011;60665;53.506;9.582;2023-11-21T05:25:37;10.00;;;4.40;;
72621;SDS011;60665;53.506;9.582;2023-11-21T05:28:03;8.80;;;4.15;;
72621;SDS011;60665;53.506;9.582;2023-11-21T05:30:29;8.40;;;4.03;;
72621;SDS011;60665;53.506;9.582;2023-11-21T05:32:54;10.55;;;4.20;;
72621;SDS011;60665;53.506;9.582;2023-11-21T05:35:20;9.60;;;4.03;;
72621;SDS011;60665;53.506;9.582;2023-11-21T05:37:46;9.32;;;3.88;;
72621;SDS011;60665;53.506;9.582;2023-11-21T05:40:11;8.05;;;3.38;;
72621;SDS011;60665;53.506;9.582;2023-11-21T05:42:38;7.82;;;3.97;;
72621;SDS011;60665;53.506;9.582;2023-11-21T05:45:04;10.68;;;4.28;;
72621;SDS011;60665;53.506;9.582;2023-11-21T05:50:05;11.35;;;5.13;;
72621;SDS011;60665;53.506;9.582;2023-11-21T05:52:31;8.65;;;3.92;;
72621;SDS011;60665;53.506;9.582;2023-11-21T05:54:57;10.82;;;3.92;;
72621;SDS011;60665;53.506;9.582;2023-11-21T05:57:23;9.38;;;4.03;;
72621;SDS011;60665;53.506;9.582;2023-11-21T05:59:48;8.15;;;3.92;;
72621;SDS011;60665;53.506;9.582;2023-11-21T06:02:14;10.40;;;4.85;;
72621;SDS011;60665;53.506;9.582;2023-11-21T06:04:39;8.70;;;4.20;;
72621;SDS011;60665;53.506;9.582;2023-11-21T06:07:05;9.85;;;4.85;;
72621;SDS011;60665;53.506;9.582;2023-11-21T06:09:30;8.88;;;4.20;;
72621;SDS011;60665;53.506;9.582;2023-11-21T06:11:55;9.85;;;4.30;;
72621;SDS011;60665;53.506;9.582;2023-11-21T06:14:21;9.93;;;4.45;;
72621;SDS011;60665;53.506;9.582;2023-11-21T06:16:46;13.18;;;4.57;;
72621;SDS011;60665;53.506;9.582;2023-11-21T06:19:12;9.27;;;4.45;;
72621;SDS011;60665;53.506;9.582;2023-11-21T06:21:37;8.02;;;4.13;;
72621;SDS011;60665;53.506;9.582;2023-11-21T06:24:03;11.15;;;4.80;;
72621;SDS011;60665;53.506;9.582;2023-11-21T06:26:29;9.10;;;4.40;;
72621;SDS011;60665;53.506;9.582;2023-11-21T06:28:56;8.60;;;4.22;;
72621;SDS011;60665;53.506;9.582;2023-11-21T06:31:22;9.40;;;3.90;;
72621;SDS011;60665;53.506;9.582;2023-11-21T06:33:47;9.82;;;4.53;;
72621;SDS011;60665;53.506;9.582;2023-11-21T06:36:13;8.15;;;4.10;;
72621;SDS011;60665;53.506;9.582;2023-11-21T06:38:38;9.32;;;3.63;;
72621;SDS011;60665;53.506;9.582;2023-11-21T06:41:04;7.40;;;3.63;;
72621;SDS011;60665;53.506;9.582;2023-11-21T06:43:29;9.43;;;3.90;;
72621;SDS011;60665;53.506;9.582;2023-11-21T06:45:56;11.20;;;4.00;;
72621;SDS011;60665;53.506;9.582;2023-11-21T06:48:22;11.15;;;4.82;;
72621;SDS011;60665;53.506;9.582;2023-11-21T06:50:47;10.10;;;4.50;;
72621;SDS011;60665;53.506;9.582;2023-11-21T06:53:12;10.35;;;4.88;;
72621;SDS011;60665;53.506;9.582;2023-11-21T06:55:38;8.88;;;4.22;;
72621;SDS011;60665;53.506;9.582;2023-11-21T06:58:03;10.02;;;4.65;;
72621;SDS011;60665;53.506;9.582;2023-11-21T07:00:30;11.32;;;4.40;;
72621;SDS011;60665;53.506;9.582;2023-11-21T07:02:55;8.73;;;4.20;;
72621;SDS011;60665;53.506;9.582;2023-11-21T07:05:21;8.05;;;4.18;;
72621;SDS011;60665;53.506;9.582;2023-11-21T07:07:47;10.65;;;4.10;;
72621;SDS011;60665;53.506;9.582;2023-11-21T07:10:13;11.65;;;4.85;;
72621;SDS011;60665;53.506;9.582;2023-11-21T07:12:38;8.95;;;4.22;;
72621;SDS011;60665;53.506;9.582;2023-11-21T07:15:05;9.68;;;4.57;;
72621;SDS011;60665;53.506;9.582;2023-11-21T07:17:34;8.80;;;4.00;;
72621;SDS011;60665;53.506;9.582;2023-11-21T07:20:02;8.82;;;4.47;;
72621;SDS011;60665;53.506;9.582;2023-11-21T07:22:28;9.68;;;4.32;;
72621;SDS011;60665;53.506;9.582;2023-11-21T07:24:53;9.45;;;4.18;;
72621;SDS011;60665;53.506;9.582;2023-11-21T07:27:21;9.65;;;4.38;;
72621;SDS011;60665;53.506;9.582;2023-11-21T07:29:47;9.02;;;4.20;;
72621;SDS011;60665;53.506;9.582;2023-11-21T07:32:13;9.52;;;4.18;;
72621;SDS011;60665;53.506;9.582;2023-11-21T07:34:39;9.63;;;4.80;;
72621;SDS011;60665;53.506;9.582;2023-11-21T07:37:05;8.25;;;4.10;;
72621;SDS011;60665;53.506;9.582;2023-11-21T07:39:30;8.27;;;3.92;;
72621;SDS011;60665;53.506;9.582;2023-11-21T07:41:56;9.55;;;4.65;;
72621;SDS011;60665;53.506;9.582;2023-11-21T07:44:23;11.75;;;5.60;;
72621;SDS011;60665;53.506;9.582;2023-11-21T07:46:48;11.18;;;4.93;;
72621;SDS011;60665;53.506;9.582;2023-11-21T07:49:14;11.50;;;4.43;;
72621;SDS011;60665;53.506;9.582;2023-11-21T07:51:41;10.57;;;4.80;;
72621;SDS011;60665;53.506;9.582;2023-11-21T07:54:07;10.30;;;4.72;;
72621;SDS011;60665;53.506;9.582;2023-11-21T07:56:32;10.82;;;5.00;;
72621;SDS011;60665;53.506;9.582;2023-11-21T07:58:57;13.10;;;4.55;;
72621;SDS011;60665;53.506;9.582;2023-11-21T08:01:23;12.00;;;4.88;;
72621;SDS011;60665;53.506;9.582;2023-11-21T08:03:49;9.93;;;4.60;;
72621;SDS011;60665;53.506;9.582;2023-11-21T08:06:17;8.38;;;3.92;;
72621;SDS011;60665;53.506;9.582;2023-11-21T08:08:42;10.10;;;4.63;;
72621;SDS011;60665;53.506;9.582;2023-11-21T08:11:08;10.77;;;4.60;;
72621;SDS011;60665;53.506;9.582;2023-11-21T08:13:35;8.98;;;4.63;;
72621;SDS011;60665;53.506;9.582;2023-11-21T08:16:00;10.77;;;4.63;;
72621;SDS011;60665;53.506;9.582;2023-11-21T08:18:29;10.27;;;4.35;;
72621;SDS011;60665;53.506;9.582;2023-11-21T08:20:55;9.30;;;4.22;;
72621;SDS011;60665;53.506;9.582;2023-11-21T08:23:21;8.50;;;4.13;;
72621;SDS011;60665;53.506;9.582;2023-11-21T08:25:50;9.23;;;4.70;;
72621;SDS011;60665;53.506;9.582;2023-11-21T08:28:16;8.93;;;4.10;;
72621;SDS011;60665;53.506;9.582;2023-11-21T08:30:41;8.48;;;4.28;;
72621;SDS011;60665;53.506;9.582;2023-11-21T08:33:07;10.38;;;4.03;;
72621;SDS011;60665;53.506;9.582;2023-11-21T08:35:34;9.70;;;4.80;;
72621;SDS011;60665;53.506;9.582;2023-11-21T08:37:59;7.95;;;4.07;;
72621;SDS011;60665;53.506;9.582;2023-11-21T08:40:25;11.52;;;4.82;;
72621;SDS011;60665;53.506;9.582;2023-11-21T08:42:50;9.07;;;4.55;;
72621;SDS011;60665;53.506;9.582;2023-11-21T08:45:17;9.25;;;4.43;;
72621;SDS011;60665;53.506;9.582;2023-11-21T08:47:43;11.35;;;4.75;;
72621;SDS011;60665;53.506;9.582;2023-11-21T08:50:12;9.88;;;5.00;;
72621;SDS011;60665;53.506;9.582;2023-11-21T08:52:38;10.88;;;5.15;;
72621;SDS011;60665;53.506;9.582;2023-11-21T08:55:04;10.18;;;4.75;;
72621;SDS011;60665;53.506;9.582;2023-11-21T08:57:33;11.50;;;4.95;;
72621;SDS011;60665;53.506;9.582;2023-11-21T09:00:07;11.50;;;4.50;;
72621;SDS011;60665;53.506;9.582;2023-11-21T09:02:36;9.13;;;4.88;;
72621;SDS011;60665;53.506;9.582;2023-11-21T09:05:07;11.15;;;4.78;;
72621;SDS011;60665;53.506;9.582;2023-11-21T09:07:33;12.32;;;4.75;;
72621;SDS011;60665;53.506;9.582;2023-11-21T09:09:59;8.48;;;4.60;;
72621;SDS011;60665;53.506;9.582;2023-11-21T09:12:24;7.82;;;4.00;;
72621;SDS011;60665;53.506;9.582;2023-11-21T09:14:50;8.25;;;3.78;;
72621;SDS011;60665;53.506;9.582;2023-11-21T09:17:16;11.70;;;4.40;;
72621;SDS011;60665;53.506;9.582;2023-11-21T09:19:41;8.90;;;3.95;;
72621;SDS011;60665;53.506;9.582;2023-11-21T09:22:08;11.07;;;3.90;;
72621;SDS011;60665;53.506;9.582;2023-11-21T09:24:34;8.05;;;3.33;;
72621;SDS011;60665;53.506;9.582;2023-11-21T09:26:59;6.28;;;3.30;;
72621;SDS011;60665;53.506;9.582;2023-11-21T09:29:25;6.85;;;3.33;;
72621;SDS011;60665;53.506;9.582;2023-11-21T09:31:54;6.70;;;2.90;;
72621;SDS011;60665;53.506;9.582;2023-11-21T09:34:20;8.82;;;2.95;;
72621;SDS011;60665;53.506;9.582;2023-11-21T09:36:46;6.32;;;2.72;;
72621;SDS011;60665;53.506;9.582;2023-11-21T09:39:11;5.68;;;2.63;;
72621;SDS011;60665;53.506;9.582;2023-11-21T09:44:13;6.82;;;2.67;;
72621;SDS011;60665;53.506;9.582;2023-11-21T09:46:47;6.22;;;2.45;;
72621;SDS011;60665;53.506;9.582;2023-11-21T09:49:14;4.80;;;2.50;;
72621;SDS011;60665;53.506;9.582;2023-11-21T09:51:43;5.68;;;1.77;;
72621;SDS011;60665;53.506;9.582;2023-11-21T09:54:10;6.38;;;2.25;;
72621;SDS011;60665;53.506;9.582;2023-11-21T09:56:39;6.28;;;2.47;;
72621;SDS011;60665;53.506;9.582;2023-11-21T09:59:05;4.60;;;1.95;;
72621;SDS011;60665;53.506;9.582;2023-11-21T10:01:32;7.47;;;2.80;;
72621;SDS011;60665;53.506;9.582;2023-11-21T10:03:58;4.95;;;2.28;;
72621;SDS011;60665;53.506;9.582;2023-11-21T10:06:24;4.78;;;1.83;;
72621;SDS011;60665;53.506;9.582;2023-11-21T10:08:52;5.85;;;2.10;;
72621;SDS011;60665;53.506;9.582;2023-11-21T10:11:18;5.05;;;2.33;;
72621;SDS011;60665;53.506;9.582;2023-11-21T10:13:45;4.85;;;1.98;;
72621;SDS011;60665;53.506;9.582;2023-11-21T10:16:14;7.32;;;2.22;;
72621;SDS011;60665;53.506;9.582;2023-11-21T10:18:41;5.10;;;1.90;;
72621;SDS011;60665;53.506;9.582;2023-11-21T10:21:07;5.60;;;2.15;;
72621;SDS011;60665;53.506;9.582;2023-11-21T10:23:34;5.78;;;2.15;;
72621;SDS011;60665;53.506;9.582;2023-11-21T10:25:59;4.25;;;1.80;;
72621;SDS011;60665;53.506;9.582;2023-11-21T10:28:26;5.13;;;1.95;;
72621;SDS011;60665;53.506;9.582;2023-11-21T10:30:51;3.97;;;1.63;;
72621;SDS011;60665;53.506;9.582;2023-11-21T10:33:17;5.10;;;2.13;;
72621;SDS011;60665;53.506;9.582;2023-11-21T10:35:52;4.03;;;1.60;;
72621;SDS011;60665;53.506;9.582;2023-11-21T10:38:19;4.38;;;1.55;;
72621;SDS011;60665;53.506;9.582;2023-11-21T10:40:49;7.38;;;1.48;;
72621;SDS011;60665;53.506;9.582;2023-11-21T10:43:15;3.70;;;1.42;;
72621;SDS011;60665;53.506;9.582;2023-11-21T10:45:41;3.67;;;1.40;;
72621;SDS011;60665;53.506;9.582;2023-11-21T10:48:07;3.25;;;1.38;;
72621;SDS011;60665;53.506;9.582;2023-11-21T10:50:35;2.63;;;1.10;;
72621;SDS011;60665;53.506;9.582;2023-11-21T10:53:02;3.80;;;1.67;;
72621;SDS011;60665;53.506;9.582;2023-11-21T10:55:28;4.88;;;1.90;;
72621;SDS011;60665;53.506;9.582;2023-11-21T10:57:54;3.58;;;1.30;;
72621;SDS011;60665;53.506;9.582;2023-11-21T11:00:23;4.03;;;1.60;;
72621;SDS011;60665;53.506;9.582;2023-11-21T11:02:50;4.40;;;1.67;;
72621;SDS011;60665;53.506;9.582;2023-11-21T11:05:19;3.70;;;1.60;;
72621;SDS011;60665;53.506;9.582;2023-11-21T11:07:45;5.85;;;1.60;;
72621;SDS011;60665;53.506;9.582;2023-11-21T11:12:39;3.85;;;1.42;;
72621;SDS011;60665;53.506;9.582;2023-11-21T11:15:06;3.15;;;1.40;;
72621;SDS011;60665;53.506;9.582;2023-11-21T11:17:34;4.13;;;1.42;;
72621;SDS011;60665;53.506;9.582;2023-11-21T11:20:03;3.67;;;1.50;;
72621;SDS011;60665;53.506;9.582;2023-11-21T11:27:50;4.25;;;1.50;;
72621;SDS011;60665;53.506;9.582;2023-11-21T11:30:25;5.00;;;1.67;;
72621;SDS011;60665;53.506;9.582;2023-11-21T11:38:20;3.20;;;1.30;;
72621;SDS011;60665;53.506;9.582;2023-11-21T11:40:47;5.55;;;1.75;;
72621;SDS011;60665;53.506;9.582;2023-11-21T11:43:13;3.42;;;1.45;;
72621;SDS011;60665;53.506;9.582;2023-11-21T11:45:38;4.68;;;1.73;;
72621;SDS011;60665;53.506;9.582;2023-11-21T11:48:07;3.70;;;1.42;;
72621;SDS011;60665;53.506;9.582;2023-11-21T11:50:33;4.13;;;1.40;;
72621;SDS011;60665;53.506;9.582;2023-11-21T11:53:12;4.88;;;1.70;;
72621;SDS011;60665;53.506;9.582;2023-11-21T11:55:38;3.22;;;1.33;;
72621;SDS011;60665;53.506;9.582;2023-11-21T11:58:04;4.68;;;1.38;;
72621;SDS011;60665;53.506;9.582;2023-11-21T12:00:34;3.72;;;1.33;;
72621;SDS011;60665;53.506;9.582;2023-11-21T12:03:02;3.28;;;1.27;;
72621;SDS011;60665;53.506;9.582;2023-11-21T12:05:29;3.25;;;1.35;;
72621;SDS011;60665;53.506;9.582;2023-11-21T12:08:01;4.13;;;1.63;;
72621;SDS011;60665;53.506;9.582;2023-11-21T12:10:28;5.90;;;1.88;;
72621;SDS011;60665;53.506;9.582;2023-11-21T12:13:01;3.72;;;1.60;;
72621;SDS011;60665;53.506;9.582;2023-11-21T12:15:38;4.43;;;1.63;;
72621;SDS011;60665;53.506;9.582;2023-11-21T12:18:05;4.45;;;1.92;;
72621;SDS011;60665;53.506;9.582;2023-11-21T12:20:30;5.90;;;1.98;;
72621;SDS011;60665;53.506;9.582;2023-11-21T12:23:03;4.63;;;1.92;;
72621;SDS011;60665;53.506;9.582;2023-11-21T12:25:29;6.00;;;2.53;;
72621;SDS011;60665;53.506;9.582;2023-11-21T12:27:57;7.47;;;2.70;;
72621;SDS011;60665;53.506;9.582;2023-11-21T12:30:24;7.85;;;2.47;;
72621;SDS011;60665;53.506;9.582;2023-11-21T12:32:53;5.60;;;2.28;;
72621;SDS011;60665;53.506;9.582;2023-11-21T12:35:21;4.28;;;1.65;;
72621;SDS011;60665;53.506;9.582;2023-11-21T12:37:48;5.40;;;1.98;;
72621;SDS011;60665;53.506;9.582;2023-11-21T12:40:14;4.43;;;1.95;;
72621;SDS011;60665;53.506;9.582;2023-11-21T12:42:43;3.63;;;1.40;;
72621;SDS011;60665;53.506;9.582;2023-11-21T12:45:12;3.72;;;1.35;;
72621;SDS011;60665;53.506;9.582;2023-11-21T12:47:45;4.30;;;1.55;;
72621;SDS011;60665;53.506;9.582;2023-11-21T12:50:11;5.55;;;2.53;;
72621;SDS011;60665;53.506;9.582;2023-11-21T12:52:40;3.92;;;1.40;;
72621;SDS011;60665;53.506;9.582;2023-11-21T12:55:06;5.20;;;1.80;;
72621;SDS011;60665;53.506;9.582;2023-11-21T12:57:33;4.25;;;1.77;;
72621;SDS011;60665;53.506;9.582;2023-11-21T12:59:58;3.58;;;1.50;;
72621;SDS011;60665;53.506;9.582;2023-11-21T13:02:29;2.83;;;1.20;;
72621;SDS011;60665;53.506;9.582;2023-11-21T13:04:56;4.97;;;1.80;;
72621;SDS011;60665;53.506;9.582;2023-11-21T13:07:23;4.63;;;1.63;;
72621;SDS011;60665;53.506;9.582;2023-11-21T13:09:51;4.88;;;1.65;;
72621;SDS011;60665;53.506;9.582;2023-11-21T13:12:17;4.30;;;1.52;;
72621;SDS011;60665;53.506;9.582;2023-11-21T13:14:45;3.40;;;1.40;;
72621;SDS011;60665;53.506;9.582;2023-11-21T13:17:11;4.22;;;1.65;;
72621;SDS011;60665;53.506;9.582;2023-11-21T13:19:37;3.25;;;1.30;;
72621;SDS011;60665;53.506;9.582;2023-11-21T13:22:03;4.22;;;1.55;;
72621;SDS011;60665;53.506;9.582;2023-11-21T13:24:29;6.63;;;1.67;;
72621;SDS011;60665;53.506;9.582;2023-11-21T13:26:54;3.50;;;1.70;;
72621;SDS011;60665;53.506;9.582;2023-11-21T13:29:20;4.18;;;1.55;;
72621;SDS011;60665;53.506;9.582;2023-11-21T13:31:46;5.15;;;1.75;;
72621;SDS011;60665;53.506;9.582;2023-11-21T13:34:15;4.53;;;1.73;;
72621;SDS011;60665;53.506;9.582;2023-11-21T13:39:10;2.55;;;1.17;;
72621;SDS011;60665;53.506;9.582;2023-11-21T13:41:40;5.15;;;1.75;;
72621;SDS011;60665;53.506;9.582;2023-11-21T13:44:06;3.30;;;1.42;;
72621;SDS011;60665;53.506;9.582;2023-11-21T13:46:55;3.45;;;1.45;;
72621;SDS011;60665;53.506;9.582;2023-11-21T13:49:23;3.45;;;1.38;;
72621;SDS011;60665;53.506;9.582;2023-11-21T13:51:49;4.95;;;1.92;;
72621;SDS011;60665;53.506;9.582;2023-11-21T13:54:18;3.72;;;1.42;;
72621;SDS011;60665;53.506;9.582;2023-11-21T13:56:46;4.20;;;1.67;;
72621;SDS011;60665;53.506;9.582;2023-11-21T13:59:12;6.13;;;1.80;;
72621;SDS011;60665;53.506;9.582;2023-11-21T14:01:50;3.97;;;1.65;;
72621;SDS011;60665;53.506;9.582;2023-11-21T14:04:18;6.18;;;1.98;;
72621;SDS011;60665;53.506;9.582;2023-11-21T14:06:46;4.65;;;1.88;;
72621;SDS011;60665;53.506;9.582;2023-11-21T14:09:25;6.10;;;2.30;;
72621;SDS011;60665;53.506;9.582;2023-11-21T14:11:57;4.07;;;1.60;;
72621;SDS011;60665;53.506;9.582;2023-11-21T14:14:24;4.65;;;1.80;;
72621;SDS011;60665;53.506;9.582;2023-11-21T14:16:52;3.50;;;1.50;;
72621;SDS011;60665;53.506;9.582;2023-11-21T14:19:18;4.45;;;1.80;;
72621;SDS011;60665;53.506;9.582;2023-11-21T14:21:44;4.38;;;1.70;;
72621;SDS011;60665;53.506;9.582;2023-11-21T14:24:10;3.40;;;1.40;;
72621;SDS011;60665;53.506;9.582;2023-11-21T14:26:42;4.90;;;1.70;;
72621;SDS011;60665;53.506;9.582;2023-11-21T14:29:08;4.97;;;1.88;;
72621;SDS011;60665;53.506;9.582;2023-11-21T14:31:34;3.55;;;1.50;;
72621;SDS011;60665;53.506;9.582;2023-11-21T14:34:00;3.53;;;1.42;;
72621;SDS011;60665;53.506;9.582;2023-11-21T14:36:31;5.43;;;2.20;;
72621;SDS011;60665;53.506;9.582;2023-11-21T14:38:56;8.05;;;2.97;;
72621;SDS011;60665;53.506;9.582;2023-11-21T14:41:22;4.50;;;2.10;;
72621;SDS011;60665;53.506;9.582;2023-11-21T14:43:47;5.20;;;1.80;;
72621;SDS011;60665;53.506;9.582;2023-11-21T14:46:14;5.80;;;1.95;;
72621;SDS011;60665;53.506;9.582;2023-11-21T14:48:42;4.47;;;1.75;;
72621;SDS011;60665;53.506;9.582;2023-11-21T14:51:10;5.38;;;1.92;;
72621;SDS011;60665;53.506;9.582;2023-11-21T14:53:55;4.47;;;1.80;;
72621;SDS011;60665;53.506;9.582;2023-11-21T14:56:33;4.65;;;1.60;;
72621;SDS011;60665;53.506;9.582;2023-11-21T14:59:00;4.68;;;1.73;;
72621;SDS011;60665;53.506;9.582;2023-11-21T15:01:32;5.82;;;1.80;;
72621;SDS011;60665;53.506;9.582;2023-11-21T15:04:18;4.80;;;2.20;;
72621;SDS011;60665;53.506;9.582;2023-11-21T15:07:04;4.53;;;1.88;;